Terminal Aerodrome Forecast
Issued by NWS Jackson, MS

Current Version | Previous Version | Text Only | Print | Product List | Glossary On
Versions: 1 2 3 4 5 6 7 8 9 10 11 12
427
FTUS44 KJAN 201749
TAFGLH
TAF
KGLH 201749Z 2018/2118 15004KT P6SM VCSH SCT050 SCT250
     FM210000 16003KT P6SM FEW050 SCT250=

USA.gov is the U.S. government's official web portal to all federal, state and local government web resources and services.